sensor_id;sensor_type;location;lat;lon;timestamp;temperature;humidity
43089;DHT22;28709;52.030;5.652;2023-08-01T00:00:48;15.80;99.90
43089;DHT22;28709;52.030;5.652;2023-08-01T00:03:14;15.80;99.90
43089;DHT22;28709;52.030;5.652;2023-08-01T00:05:40;15.70;99.90
43089;DHT22;28709;52.030;5.652;2023-08-01T00:08:13;15.70;99.90
43089;DHT22;28709;52.030;5.652;2023-08-01T00:10:42;15.70;99.90
43089;DHT22;28709;52.030;5.652;2023-08-01T00:13:08;15.60;99.90
43089;DHT22;28709;52.030;5.652;2023-08-01T00:15:35;15.70;99.90
43089;DHT22;28709;52.030;5.652;2023-08-01T00:18:01;15.70;99.90
43089;DHT22;28709;52.030;5.652;2023-08-01T00:20:26;15.70;99.90
43089;DHT22;28709;52.030;5.652;2023-08-01T00:22:52;15.70;99.90
43089;DHT22;28709;52.030;5.652;2023-08-01T00:25:18;15.80;99.90
43089;DHT22;28709;52.030;5.652;2023-08-01T00:27:44;15.80;99.90
43089;DHT22;28709;52.030;5.652;2023-08-01T00:30:09;15.80;99.90
43089;DHT22;28709;52.030;5.652;2023-08-01T00:32:36;15.80;99.90
43089;DHT22;28709;52.030;5.652;2023-08-01T00:35:02;15.80;99.90
43089;DHT22;28709;52.030;5.652;2023-08-01T00:37:28;15.80;99.90
43089;DHT22;28709;52.030;5.652;2023-08-01T00:39:53;15.80;99.90
43089;DHT22;28709;52.030;5.652;2023-08-01T00:42:19;15.80;99.90
43089;DHT22;28709;52.030;5.652;2023-08-01T00:44:45;15.80;99.90
43089;DHT22;28709;52.030;5.652;2023-08-01T00:47:13;15.70;99.90
43089;DHT22;28709;52.030;5.652;2023-08-01T00:49:39;15.70;99.90
43089;DHT22;28709;52.030;5.652;2023-08-01T00:52:05;15.60;99.90
43089;DHT22;28709;52.030;5.652;2023-08-01T00:54:31;15.60;99.90
43089;DHT22;28709;52.030;5.652;2023-08-01T00:57:02;15.60;99.90
43089;DHT22;28709;52.030;5.652;2023-08-01T00:59:29;15.60;99.90
43089;DHT22;28709;52.030;5.652;2023-08-01T01:01:54;15.50;99.90
43089;DHT22;28709;52.030;5.652;2023-08-01T01:04:20;15.50;99.90
43089;DHT22;28709;52.030;5.652;2023-08-01T01:07:05;15.50;99.90
43089;DHT22;28709;52.030;5.652;2023-08-01T01:09:31;15.50;99.90
43089;DHT22;28709;52.030;5.652;2023-08-01T01:12:00;15.60;99.90
43089;DHT22;28709;52.030;5.652;2023-08-01T01:14:27;15.50;99.90
43089;DHT22;28709;52.030;5.652;2023-08-01T01:16:52;15.50;99.90
43089;DHT22;28709;52.030;5.652;2023-08-01T01:19:18;15.50;99.90
43089;DHT22;28709;52.030;5.652;2023-08-01T01:21:44;15.50;99.90
43089;DHT22;28709;52.030;5.652;2023-08-01T01:24:11;15.50;99.90
43089;DHT22;28709;52.030;5.652;2023-08-01T01:26:40;15.50;99.90
43089;DHT22;28709;52.030;5.652;2023-08-01T01:29:06;15.50;99.90
43089;DHT22;28709;52.030;5.652;2023-08-01T01:31:34;15.50;99.90
43089;DHT22;28709;52.030;5.652;2023-08-01T01:34:00;15.50;99.90
43089;DHT22;28709;52.030;5.652;2023-08-01T01:36:26;15.50;99.90
43089;DHT22;28709;52.030;5.652;2023-08-01T01:38:51;15.50;99.90
43089;DHT22;28709;52.030;5.652;2023-08-01T01:41:17;15.50;99.90
43089;DHT22;28709;52.030;5.652;2023-08-01T01:43:42;15.50;99.90
43089;DHT22;28709;52.030;5.652;2023-08-01T01:46:09;15.50;99.90
43089;DHT22;28709;52.030;5.652;2023-08-01T01:48:35;15.50;99.90
43089;DHT22;28709;52.030;5.652;2023-08-01T01:51:01;15.50;99.90
43089;DHT22;28709;52.030;5.652;2023-08-01T01:53:26;15.50;99.90
43089;DHT22;28709;52.030;5.652;2023-08-01T01:55:52;15.50;99.90
43089;DHT22;28709;52.030;5.652;2023-08-01T01:58:18;15.50;99.90
43089;DHT22;28709;52.030;5.652;2023-08-01T02:00:43;15.50;99.90
43089;DHT22;28709;52.030;5.652;2023-08-01T02:03:09;15.50;99.90
43089;DHT22;28709;52.030;5.652;2023-08-01T02:05:36;15.50;99.90
43089;DHT22;28709;52.030;5.652;2023-08-01T02:08:02;15.50;99.90
43089;DHT22;28709;52.030;5.652;2023-08-01T02:10:28;15.40;99.90
43089;DHT22;28709;52.030;5.652;2023-08-01T02:12:53;15.50;99.90
43089;DHT22;28709;52.030;5.652;2023-08-01T02:15:19;15.50;99.90
43089;DHT22;28709;52.030;5.652;2023-08-01T02:17:45;15.40;99.90
43089;DHT22;28709;52.030;5.652;2023-08-01T02:20:11;15.50;99.90
43089;DHT22;28709;52.030;5.652;2023-08-01T02:22:36;15.40;99.90
43089;DHT22;28709;52.030;5.652;2023-08-01T02:25:02;15.40;99.90
43089;DHT22;28709;52.030;5.652;2023-08-01T02:27:27;15.40;99.90
43089;DHT22;28709;52.030;5.652;2023-08-01T02:29:53;15.40;99.90
43089;DHT22;28709;52.030;5.652;2023-08-01T02:32:19;15.40;99.90
43089;DHT22;28709;52.030;5.652;2023-08-01T02:34:44;15.30;99.90
43089;DHT22;28709;52.030;5.652;2023-08-01T02:37:10;15.30;99.90
43089;DHT22;28709;52.030;5.652;2023-08-01T02:39:36;15.30;99.90
43089;DHT22;28709;52.030;5.652;2023-08-01T02:42:01;15.30;99.90
43089;DHT22;28709;52.030;5.652;2023-08-01T02:44:27;15.30;99.90
43089;DHT22;28709;52.030;5.652;2023-08-01T02:46:53;15.30;99.90
43089;DHT22;28709;52.030;5.652;2023-08-01T02:49:19;15.30;99.90
43089;DHT22;28709;52.030;5.652;2023-08-01T02:51:44;15.30;99.90
43089;DHT22;28709;52.030;5.652;2023-08-01T02:54:10;15.30;99.90
43089;DHT22;28709;52.030;5.652;2023-08-01T02:56:35;15.30;99.90
43089;DHT22;28709;52.030;5.652;2023-08-01T02:59:09;15.30;99.90
43089;DHT22;28709;52.030;5.652;2023-08-01T03:01:35;15.30;99.90
43089;DHT22;28709;52.030;5.652;2023-08-01T03:04:05;15.30;99.90
43089;DHT22;28709;52.030;5.652;2023-08-01T03:06:32;15.30;99.90
43089;DHT22;28709;52.030;5.652;2023-08-01T03:08:58;15.30;99.90
43089;DHT22;28709;52.030;5.652;2023-08-01T03:11:24;15.30;99.90
43089;DHT22;28709;52.030;5.652;2023-08-01T03:13:50;15.30;99.90
43089;DHT22;28709;52.030;5.652;2023-08-01T03:16:16;15.40;99.90
43089;DHT22;28709;52.030;5.652;2023-08-01T03:18:42;15.40;99.90
43089;DHT22;28709;52.030;5.652;2023-08-01T03:21:08;15.40;99.90
43089;DHT22;28709;52.030;5.652;2023-08-01T03:23:34;15.40;99.90
43089;DHT22;28709;52.030;5.652;2023-08-01T03:26:00;15.40;99.90
43089;DHT22;28709;52.030;5.652;2023-08-01T03:28:28;15.40;99.90
43089;DHT22;28709;52.030;5.652;2023-08-01T03:30:54;15.40;99.90
43089;DHT22;28709;52.030;5.652;2023-08-01T03:33:20;15.50;99.90
43089;DHT22;28709;52.030;5.652;2023-08-01T03:35:46;15.50;99.90
43089;DHT22;28709;52.030;5.652;2023-08-01T03:38:12;15.50;99.90
43089;DHT22;28709;52.030;5.652;2023-08-01T03:40:37;15.50;99.90
43089;DHT22;28709;52.030;5.652;2023-08-01T03:43:03;15.50;99.90
43089;DHT22;28709;52.030;5.652;2023-08-01T03:45:29;15.60;99.90
43089;DHT22;28709;52.030;5.652;2023-08-01T03:47:54;15.60;99.90
43089;DHT22;28709;52.030;5.652;2023-08-01T03:50:20;15.60;99.90
43089;DHT22;28709;52.030;5.652;2023-08-01T03:52:46;15.60;99.90
43089;DHT22;28709;52.030;5.652;2023-08-01T03:55:12;15.70;99.90
43089;DHT22;28709;52.030;5.652;2023-08-01T03:57:37;15.70;99.90
43089;DHT22;28709;52.030;5.652;2023-08-01T04:00:06;15.70;99.90
43089;DHT22;28709;52.030;5.652;2023-08-01T04:02:32;15.70;99.90
43089;DHT22;28709;52.030;5.652;2023-08-01T04:04:57;15.70;99.90
43089;DHT22;28709;52.030;5.652;2023-08-01T04:07:23;15.70;99.90
43089;DHT22;28709;52.030;5.652;2023-08-01T04:09:49;15.70;99.90
43089;DHT22;28709;52.030;5.652;2023-08-01T04:12:15;15.70;99.90
43089;DHT22;28709;52.030;5.652;2023-08-01T04:14:41;15.80;99.90
43089;DHT22;28709;52.030;5.652;2023-08-01T04:17:06;15.80;99.90
43089;DHT22;28709;52.030;5.652;2023-08-01T04:19:32;15.80;99.90
43089;DHT22;28709;52.030;5.652;2023-08-01T04:21:57;15.70;99.90
43089;DHT22;28709;52.030;5.652;2023-08-01T04:24:23;15.70;99.90
43089;DHT22;28709;52.030;5.652;2023-08-01T04:26:50;15.60;99.90
43089;DHT22;28709;52.030;5.652;2023-08-01T04:29:17;15.60;99.90
43089;DHT22;28709;52.030;5.652;2023-08-01T04:31:43;15.60;99.90
43089;DHT22;28709;52.030;5.652;2023-08-01T04:34:09;15.60;99.90
43089;DHT22;28709;52.030;5.652;2023-08-01T04:36:34;15.60;99.90
43089;DHT22;28709;52.030;5.652;2023-08-01T04:39:00;15.60;99.90
43089;DHT22;28709;52.030;5.652;2023-08-01T04:41:25;15.60;99.90
43089;DHT22;28709;52.030;5.652;2023-08-01T04:43:52;15.60;99.90
43089;DHT22;28709;52.030;5.652;2023-08-01T04:46:17;15.60;99.90
43089;DHT22;28709;52.030;5.652;2023-08-01T04:48:43;15.60;99.90
43089;DHT22;28709;52.030;5.652;2023-08-01T04:51:08;15.60;99.90
43089;DHT22;28709;52.030;5.652;2023-08-01T04:53:34;15.60;99.90
43089;DHT22;28709;52.030;5.652;2023-08-01T04:55:59;15.60;99.90
43089;DHT22;28709;52.030;5.652;2023-08-01T04:58:25;15.60;99.90
43089;DHT22;28709;52.030;5.652;2023-08-01T05:00:51;15.60;99.90
43089;DHT22;28709;52.030;5.652;2023-08-01T05:03:16;15.60;99.90
43089;DHT22;28709;52.030;5.652;2023-08-01T05:05:43;15.60;99.90
43089;DHT22;28709;52.030;5.652;2023-08-01T05:08:09;15.70;99.90
43089;DHT22;28709;52.030;5.652;2023-08-01T05:10:34;15.70;99.90
43089;DHT22;28709;52.030;5.652;2023-08-01T05:13:00;15.70;99.90
43089;DHT22;28709;52.030;5.652;2023-08-01T05:15:25;15.70;99.90
43089;DHT22;28709;52.030;5.652;2023-08-01T05:17:52;15.70;99.90
43089;DHT22;28709;52.030;5.652;2023-08-01T05:20:18;15.80;99.90
43089;DHT22;28709;52.030;5.652;2023-08-01T05:22:43;15.80;99.90
43089;DHT22;28709;52.030;5.652;2023-08-01T05:25:09;15.80;99.90
43089;DHT22;28709;52.030;5.652;2023-08-01T05:27:34;15.90;99.90
43089;DHT22;28709;52.030;5.652;2023-08-01T05:30:00;15.90;99.90
43089;DHT22;28709;52.030;5.652;2023-08-01T05:32:26;15.90;99.90
43089;DHT22;28709;52.030;5.652;2023-08-01T05:34:51;16.00;99.90
43089;DHT22;28709;52.030;5.652;2023-08-01T05:37:17;16.00;99.90
43089;DHT22;28709;52.030;5.652;2023-08-01T05:39:42;16.00;99.90
43089;DHT22;28709;52.030;5.652;2023-08-01T05:42:08;16.00;99.90
43089;DHT22;28709;52.030;5.652;2023-08-01T05:44:34;16.10;99.90
43089;DHT22;28709;52.030;5.652;2023-08-01T05:47:00;16.10;99.90
43089;DHT22;28709;52.030;5.652;2023-08-01T05:49:26;16.20;99.90
43089;DHT22;28709;52.030;5.652;2023-08-01T05:51:52;16.20;99.90
43089;DHT22;28709;52.030;5.652;2023-08-01T05:54:17;16.20;99.90
43089;DHT22;28709;52.030;5.652;2023-08-01T05:56:43;16.20;99.90
43089;DHT22;28709;52.030;5.652;2023-08-01T05:59:08;16.20;99.90
43089;DHT22;28709;52.030;5.652;2023-08-01T06:01:34;16.20;99.90
43089;DHT22;28709;52.030;5.652;2023-08-01T06:04:00;16.20;99.90
43089;DHT22;28709;52.030;5.652;2023-08-01T06:06:25;16.20;99.90
43089;DHT22;28709;52.030;5.652;2023-08-01T06:08:51;16.20;99.90
43089;DHT22;28709;52.030;5.652;2023-08-01T06:11:17;16.20;99.90
43089;DHT22;28709;52.030;5.652;2023-08-01T06:13:43;16.30;99.90
43089;DHT22;28709;52.030;5.652;2023-08-01T06:16:08;16.30;99.90
43089;DHT22;28709;52.030;5.652;2023-08-01T06:18:34;16.40;99.90
43089;DHT22;28709;52.030;5.652;2023-08-01T06:20:59;16.40;99.90
43089;DHT22;28709;52.030;5.652;2023-08-01T06:23:25;16.40;99.90
43089;DHT22;28709;52.030;5.652;2023-08-01T06:25:51;16.40;99.90
43089;DHT22;28709;52.030;5.652;2023-08-01T06:28:16;16.40;99.90
43089;DHT22;28709;52.030;5.652;2023-08-01T06:30:42;16.40;99.90
43089;DHT22;28709;52.030;5.652;2023-08-01T06:33:07;16.50;99.90
43089;DHT22;28709;52.030;5.652;2023-08-01T06:35:33;16.50;99.90
43089;DHT22;28709;52.030;5.652;2023-08-01T06:37:59;16.60;99.90
43089;DHT22;28709;52.030;5.652;2023-08-01T06:40:24;16.70;99.90
43089;DHT22;28709;52.030;5.652;2023-08-01T06:42:50;16.80;99.90
43089;DHT22;28709;52.030;5.652;2023-08-01T06:45:16;16.80;99.90
43089;DHT22;28709;52.030;5.652;2023-08-01T06:47:42;16.80;99.90
43089;DHT22;28709;52.030;5.652;2023-08-01T06:50:08;16.90;99.90
43089;DHT22;28709;52.030;5.652;2023-08-01T06:52:33;16.90;99.90
43089;DHT22;28709;52.030;5.652;2023-08-01T06:54:59;16.80;99.90
43089;DHT22;28709;52.030;5.652;2023-08-01T06:57:25;16.80;99.90
43089;DHT22;28709;52.030;5.652;2023-08-01T06:59:50;16.90;99.90
43089;DHT22;28709;52.030;5.652;2023-08-01T07:02:16;17.00;99.90
43089;DHT22;28709;52.030;5.652;2023-08-01T07:04:41;17.00;99.90
43089;DHT22;28709;52.030;5.652;2023-08-01T07:07:07;17.10;99.90
43089;DHT22;28709;52.030;5.652;2023-08-01T07:09:34;17.20;99.90
43089;DHT22;28709;52.030;5.652;2023-08-01T07:11:59;17.10;99.90
43089;DHT22;28709;52.030;5.652;2023-08-01T07:14:25;17.10;99.90
43089;DHT22;28709;52.030;5.652;2023-08-01T07:16:51;17.10;99.90
43089;DHT22;28709;52.030;5.652;2023-08-01T07:19:16;17.10;99.90
43089;DHT22;28709;52.030;5.652;2023-08-01T07:21:42;17.00;99.90
43089;DHT22;28709;52.030;5.652;2023-08-01T07:24:10;17.10;99.90
43089;DHT22;28709;52.030;5.652;2023-08-01T07:26:36;17.10;99.90
43089;DHT22;28709;52.030;5.652;2023-08-01T07:29:01;17.10;99.90
43089;DHT22;28709;52.030;5.652;2023-08-01T07:31:27;17.30;99.90
43089;DHT22;28709;52.030;5.652;2023-08-01T07:33:52;17.40;99.90
43089;DHT22;28709;52.030;5.652;2023-08-01T07:36:18;17.50;99.90
43089;DHT22;28709;52.030;5.652;2023-08-01T07:38:44;17.60;99.90
43089;DHT22;28709;52.030;5.652;2023-08-01T07:41:09;17.60;99.90
43089;DHT22;28709;52.030;5.652;2023-08-01T07:43:35;17.70;99.90
43089;DHT22;28709;52.030;5.652;2023-08-01T07:46:01;17.90;99.90
43089;DHT22;28709;52.030;5.652;2023-08-01T07:48:26;18.00;99.90
43089;DHT22;28709;52.030;5.652;2023-08-01T07:50:52;18.00;99.90
43089;DHT22;28709;52.030;5.652;2023-08-01T07:53:18;18.00;99.90
43089;DHT22;28709;52.030;5.652;2023-08-01T07:55:43;17.90;99.90
43089;DHT22;28709;52.030;5.652;2023-08-01T07:58:09;17.60;99.90
43089;DHT22;28709;52.030;5.652;2023-08-01T08:00:35;17.50;99.90
43089;DHT22;28709;52.030;5.652;2023-08-01T08:03:01;17.40;99.90
43089;DHT22;28709;52.030;5.652;2023-08-01T08:05:26;17.30;99.90
43089;DHT22;28709;52.030;5.652;2023-08-01T08:07:52;17.30;99.90
43089;DHT22;28709;52.030;5.652;2023-08-01T08:10:17;17.30;99.90
43089;DHT22;28709;52.030;5.652;2023-08-01T08:12:43;17.30;99.90
43089;DHT22;28709;52.030;5.652;2023-08-01T08:15:09;17.40;99.90
43089;DHT22;28709;52.030;5.652;2023-08-01T08:17:35;17.30;99.90
43089;DHT22;28709;52.030;5.652;2023-08-01T08:20:00;17.40;99.90
43089;DHT22;28709;52.030;5.652;2023-08-01T08:22:26;17.60;99.90
43089;DHT22;28709;52.030;5.652;2023-08-01T08:24:53;17.90;99.90
43089;DHT22;28709;52.030;5.652;2023-08-01T08:27:18;18.20;99.90
43089;DHT22;28709;52.030;5.652;2023-08-01T08:29:44;18.30;99.90
43089;DHT22;28709;52.030;5.652;2023-08-01T08:32:10;18.40;99.90
43089;DHT22;28709;52.030;5.652;2023-08-01T08:34:35;18.40;99.90
43089;DHT22;28709;52.030;5.652;2023-08-01T08:37:01;18.50;99.90
43089;DHT22;28709;52.030;5.652;2023-08-01T08:39:26;18.50;99.90
43089;DHT22;28709;52.030;5.652;2023-08-01T08:41:52;18.40;99.90
43089;DHT22;28709;52.030;5.652;2023-08-01T08:44:19;18.50;99.90
43089;DHT22;28709;52.030;5.652;2023-08-01T08:46:50;18.70;99.90
43089;DHT22;28709;52.030;5.652;2023-08-01T08:49:16;18.90;99.90
43089;DHT22;28709;52.030;5.652;2023-08-01T08:51:44;19.10;99.90
43089;DHT22;28709;52.030;5.652;2023-08-01T08:54:11;19.50;99.90
43089;DHT22;28709;52.030;5.652;2023-08-01T08:56:37;19.70;99.90
43089;DHT22;28709;52.030;5.652;2023-08-01T08:59:04;19.80;99.90
43089;DHT22;28709;52.030;5.652;2023-08-01T09:01:31;19.90;99.90
43089;DHT22;28709;52.030;5.652;2023-08-01T09:03:57;20.00;99.90
43089;DHT22;28709;52.030;5.652;2023-08-01T09:06:31;20.10;99.90
43089;DHT22;28709;52.030;5.652;2023-08-01T09:09:17;20.10;99.90
43089;DHT22;28709;52.030;5.652;2023-08-01T09:11:50;20.30;99.90
43089;DHT22;28709;52.030;5.652;2023-08-01T09:14:18;20.30;99.90
43089;DHT22;28709;52.030;5.652;2023-08-01T09:16:44;20.30;99.90
43089;DHT22;28709;52.030;5.652;2023-08-01T09:19:11;20.20;99.90
43089;DHT22;28709;52.030;5.652;2023-08-01T09:21:41;20.10;99.90
43089;DHT22;28709;52.030;5.652;2023-08-01T09:24:12;20.00;99.90
43089;DHT22;28709;52.030;5.652;2023-08-01T09:26:38;20.00;99.90
43089;DHT22;28709;52.030;5.652;2023-08-01T09:29:04;20.10;99.90
43089;DHT22;28709;52.030;5.652;2023-08-01T09:31:32;20.20;99.90
43089;DHT22;28709;52.030;5.652;2023-08-01T09:34:02;20.20;99.90
43089;DHT22;28709;52.030;5.652;2023-08-01T09:36:34;20.20;99.90
43089;DHT22;28709;52.030;5.652;2023-08-01T09:39:02;20.30;99.90
43089;DHT22;28709;52.030;5.652;2023-08-01T09:41:31;20.40;99.90
43089;DHT22;28709;52.030;5.652;2023-08-01T09:43:57;20.50;99.90
43089;DHT22;28709;52.030;5.652;2023-08-01T09:46:24;20.70;99.90
43089;DHT22;28709;52.030;5.652;2023-08-01T09:48:50;20.80;99.90
43089;DHT22;28709;52.030;5.652;2023-08-01T09:51:17;20.90;99.90
43089;DHT22;28709;52.030;5.652;2023-08-01T09:53:49;21.10;99.90
43089;DHT22;28709;52.030;5.652;2023-08-01T09:56:22;21.00;99.90
43089;DHT22;28709;52.030;5.652;2023-08-01T09:58:49;20.90;99.90
43089;DHT22;28709;52.030;5.652;2023-08-01T10:01:16;20.60;99.90
43089;DHT22;28709;52.030;5.652;2023-08-01T10:03:51;20.40;99.90
43089;DHT22;28709;52.030;5.652;2023-08-01T10:06:22;20.30;99.90
43089;DHT22;28709;52.030;5.652;2023-08-01T10:08:50;20.40;99.90
43089;DHT22;28709;52.030;5.652;2023-08-01T10:11:18;20.40;99.90
43089;DHT22;28709;52.030;5.652;2023-08-01T10:13:45;20.40;99.90
43089;DHT22;28709;52.030;5.652;2023-08-01T10:16:11;20.10;99.90
43089;DHT22;28709;52.030;5.652;2023-08-01T10:18:38;20.00;99.90
43089;DHT22;28709;52.030;5.652;2023-08-01T10:21:06;20.00;99.90
43089;DHT22;28709;52.030;5.652;2023-08-01T10:23:34;20.00;99.90
43089;DHT22;28709;52.030;5.652;2023-08-01T10:26:01;20.10;99.90
43089;DHT22;28709;52.030;5.652;2023-08-01T10:28:48;20.30;99.90
43089;DHT22;28709;52.030;5.652;2023-08-01T10:31:16;20.50;99.90
43089;DHT22;28709;52.030;5.652;2023-08-01T10:33:44;20.60;99.90
43089;DHT22;28709;52.030;5.652;2023-08-01T10:36:28;20.70;99.90
43089;DHT22;28709;52.030;5.652;2023-08-01T10:38:56;21.00;99.90
43089;DHT22;28709;52.030;5.652;2023-08-01T10:41:33;21.10;99.90
43089;DHT22;28709;52.030;5.652;2023-08-01T10:46:52;20.90;99.90
43089;DHT22;28709;52.030;5.652;2023-08-01T10:49:19;20.70;99.90
43089;DHT22;28709;52.030;5.652;2023-08-01T10:51:47;20.50;99.90
43089;DHT22;28709;52.030;5.652;2023-08-01T10:54:20;20.50;99.90
43089;DHT22;28709;52.030;5.652;2023-08-01T10:56:53;20.50;99.90
43089;DHT22;28709;52.030;5.652;2023-08-01T10:59:20;20.50;99.90
43089;DHT22;28709;52.030;5.652;2023-08-01T11:01:51;20.70;99.90
43089;DHT22;28709;52.030;5.652;2023-08-01T11:04:19;20.90;99.90
43089;DHT22;28709;52.030;5.652;2023-08-01T11:06:49;21.20;99.90
43089;DHT22;28709;52.030;5.652;2023-08-01T11:09:27;21.40;99.90
43089;DHT22;28709;52.030;5.652;2023-08-01T11:11:57;21.30;99.90
43089;DHT22;28709;52.030;5.652;2023-08-01T11:14:25;21.00;99.90
43089;DHT22;28709;52.030;5.652;2023-08-01T11:16:54;20.80;99.90
43089;DHT22;28709;52.030;5.652;2023-08-01T11:19:21;20.70;99.90
43089;DHT22;28709;52.030;5.652;2023-08-01T11:21:47;20.60;99.90
43089;DHT22;28709;52.030;5.652;2023-08-01T11:24:13;20.80;99.90
43089;DHT22;28709;52.030;5.652;2023-08-01T11:26:42;21.10;99.90
43089;DHT22;28709;52.030;5.652;2023-08-01T11:29:10;21.40;99.90
43089;DHT22;28709;52.030;5.652;2023-08-01T11:31:35;21.70;99.90
43089;DHT22;28709;52.030;5.652;2023-08-01T11:34:01;21.80;99.90
43089;DHT22;28709;52.030;5.652;2023-08-01T11:36:27;21.70;99.90
43089;DHT22;28709;52.030;5.652;2023-08-01T11:38:57;21.80;99.90
43089;DHT22;28709;52.030;5.652;2023-08-01T11:41:25;21.80;99.90
43089;DHT22;28709;52.030;5.652;2023-08-01T11:43:52;21.90;99.90
43089;DHT22;28709;52.030;5.652;2023-08-01T11:46:20;22.00;99.90
43089;DHT22;28709;52.030;5.652;2023-08-01T11:48:46;22.10;99.90
43089;DHT22;28709;52.030;5.652;2023-08-01T11:51:13;22.50;99.90
43089;DHT22;28709;52.030;5.652;2023-08-01T11:53:39;22.60;99.90
43089;DHT22;28709;52.030;5.652;2023-08-01T11:56:05;22.50;99.90
43089;DHT22;28709;52.030;5.652;2023-08-01T11:58:41;22.30;99.90
43089;DHT22;28709;52.030;5.652;2023-08-01T12:01:11;22.30;99.90
43089;DHT22;28709;52.030;5.652;2023-08-01T12:03:51;22.20;99.90
43089;DHT22;28709;52.030;5.652;2023-08-01T12:06:19;21.90;99.90
43089;DHT22;28709;52.030;5.652;2023-08-01T12:08:47;21.70;99.90
43089;DHT22;28709;52.030;5.652;2023-08-01T12:11:23;21.50;99.90
43089;DHT22;28709;52.030;5.652;2023-08-01T12:14:11;21.40;99.90
43089;DHT22;28709;52.030;5.652;2023-08-01T12:16:38;21.10;99.90
43089;DHT22;28709;52.030;5.652;2023-08-01T12:19:05;21.00;99.90
43089;DHT22;28709;52.030;5.652;2023-08-01T12:21:32;21.00;99.90
43089;DHT22;28709;52.030;5.652;2023-08-01T12:23:58;21.20;99.90
43089;DHT22;28709;52.030;5.652;2023-08-01T12:26:24;21.20;99.90
43089;DHT22;28709;52.030;5.652;2023-08-01T12:28:50;21.20;99.90
43089;DHT22;28709;52.030;5.652;2023-08-01T12:31:20;21.10;99.90
43089;DHT22;28709;52.030;5.652;2023-08-01T12:33:46;21.20;99.90
43089;DHT22;28709;52.030;5.652;2023-08-01T12:36:13;21.60;99.90
43089;DHT22;28709;52.030;5.652;2023-08-01T12:38:39;21.90;99.90
43089;DHT22;28709;52.030;5.652;2023-08-01T12:41:05;22.20;99.90
43089;DHT22;28709;52.030;5.652;2023-08-01T12:43:31;22.30;99.90
43089;DHT22;28709;52.030;5.652;2023-08-01T12:45:56;22.10;99.90
43089;DHT22;28709;52.030;5.652;2023-08-01T12:48:26;21.90;99.90
43089;DHT22;28709;52.030;5.652;2023-08-01T12:50:51;21.60;99.90
43089;DHT22;28709;52.030;5.652;2023-08-01T12:53:18;21.40;99.90
43089;DHT22;28709;52.030;5.652;2023-08-01T12:55:48;21.60;99.90
43089;DHT22;28709;52.030;5.652;2023-08-01T12:58:15;22.00;99.90
43089;DHT22;28709;52.030;5.652;2023-08-01T13:00:42;22.20;99.90
43089;DHT22;28709;52.030;5.652;2023-08-01T13:03:08;22.30;99.90
43089;DHT22;28709;52.030;5.652;2023-08-01T13:05:38;22.20;99.90
43089;DHT22;28709;52.030;5.652;2023-08-01T13:08:04;22.10;99.90
43089;DHT22;28709;52.030;5.652;2023-08-01T13:10:35;21.90;99.90
43089;DHT22;28709;52.030;5.652;2023-08-01T13:13:00;21.70;99.90
43089;DHT22;28709;52.030;5.652;2023-08-01T13:15:27;21.60;99.90
43089;DHT22;28709;52.030;5.652;2023-08-01T13:17:53;21.50;99.90
43089;DHT22;28709;52.030;5.652;2023-08-01T13:20:19;21.40;99.90
43089;DHT22;28709;52.030;5.652;2023-08-01T13:22:50;21.30;99.90
43089;DHT22;28709;52.030;5.652;2023-08-01T13:25:16;21.30;99.90
43089;DHT22;28709;52.030;5.652;2023-08-01T13:27:42;21.40;99.90
43089;DHT22;28709;52.030;5.652;2023-08-01T13:30:08;21.40;99.90
43089;DHT22;28709;52.030;5.652;2023-08-01T13:32:35;21.30;99.90
43089;DHT22;28709;52.030;5.652;2023-08-01T13:35:00;21.30;99.90
43089;DHT22;28709;52.030;5.652;2023-08-01T13:37:26;21.20;99.90
43089;DHT22;28709;52.030;5.652;2023-08-01T13:39:54;21.00;99.90
43089;DHT22;28709;52.030;5.652;2023-08-01T13:42:20;20.70;99.90
43089;DHT22;28709;52.030;5.652;2023-08-01T13:44:45;20.40;99.90
43089;DHT22;28709;52.030;5.652;2023-08-01T13:47:11;20.30;99.90
43089;DHT22;28709;52.030;5.652;2023-08-01T13:49:37;20.10;99.90
43089;DHT22;28709;52.030;5.652;2023-08-01T13:52:03;20.00;99.90
43089;DHT22;28709;52.030;5.652;2023-08-01T13:54:30;20.10;99.90
43089;DHT22;28709;52.030;5.652;2023-08-01T13:56:55;20.10;99.90
43089;DHT22;28709;52.030;5.652;2023-08-01T13:59:21;20.20;99.90
43089;DHT22;28709;52.030;5.652;2023-08-01T14:01:47;20.30;99.90
43089;DHT22;28709;52.030;5.652;2023-08-01T14:04:13;20.40;99.90
43089;DHT22;28709;52.030;5.652;2023-08-01T14:06:42;20.50;99.90
43089;DHT22;28709;52.030;5.652;2023-08-01T14:09:11;20.70;99.90
43089;DHT22;28709;52.030;5.652;2023-08-01T14:11:37;20.90;99.90
43089;DHT22;28709;52.030;5.652;2023-08-01T14:14:03;21.20;99.90
43089;DHT22;28709;52.030;5.652;2023-08-01T14:16:29;21.50;99.90
43089;DHT22;28709;52.030;5.652;2023-08-01T14:18:55;21.60;99.90
43089;DHT22;28709;52.030;5.652;2023-08-01T14:21:20;21.70;99.90
43089;DHT22;28709;52.030;5.652;2023-08-01T14:23:46;21.60;99.90
43089;DHT22;28709;52.030;5.652;2023-08-01T14:26:12;21.50;99.90
43089;DHT22;28709;52.030;5.652;2023-08-01T14:28:37;21.40;99.90
43089;DHT22;28709;52.030;5.652;2023-08-01T14:31:04;21.30;99.90
43089;DHT22;28709;52.030;5.652;2023-08-01T14:33:30;21.10;99.90
43089;DHT22;28709;52.030;5.652;2023-08-01T14:35:56;21.00;99.90
43089;DHT22;28709;52.030;5.652;2023-08-01T14:38:22;20.90;99.90
43089;DHT22;28709;52.030;5.652;2023-08-01T14:40:48;20.70;99.90
43089;DHT22;28709;52.030;5.652;2023-08-01T14:43:13;20.70;99.90
43089;DHT22;28709;52.030;5.652;2023-08-01T14:45:39;20.60;99.90
43089;DHT22;28709;52.030;5.652;2023-08-01T14:48:06;20.60;99.90
43089;DHT22;28709;52.030;5.652;2023-08-01T14:50:32;20.50;99.90
43089;DHT22;28709;52.030;5.652;2023-08-01T14:52:58;20.50;99.90
43089;DHT22;28709;52.030;5.652;2023-08-01T14:55:23;20.40;99.90
43089;DHT22;28709;52.030;5.652;2023-08-01T14:57:49;20.40;99.90
43089;DHT22;28709;52.030;5.652;2023-08-01T15:00:15;20.30;99.90
43089;DHT22;28709;52.030;5.652;2023-08-01T15:02:41;20.20;99.90
43089;DHT22;28709;52.030;5.652;2023-08-01T15:05:07;20.10;99.90
43089;DHT22;28709;52.030;5.652;2023-08-01T15:07:33;20.20;99.90
43089;DHT22;28709;52.030;5.652;2023-08-01T15:09:58;20.30;99.90
43089;DHT22;28709;52.030;5.652;2023-08-01T15:12:24;20.30;99.90
43089;DHT22;28709;52.030;5.652;2023-08-01T15:14:52;20.30;99.90
43089;DHT22;28709;52.030;5.652;2023-08-01T15:17:18;20.40;99.90
43089;DHT22;28709;52.030;5.652;2023-08-01T15:19:44;20.50;99.90
43089;DHT22;28709;52.030;5.652;2023-08-01T15:22:10;20.40;99.90
43089;DHT22;28709;52.030;5.652;2023-08-01T15:24:35;20.40;99.90
43089;DHT22;28709;52.030;5.652;2023-08-01T15:27:01;20.30;99.90
43089;DHT22;28709;52.030;5.652;2023-08-01T15:29:26;20.30;99.90